Terminal Aerodrome Forecast
Issued by NWS Sterling, VA

Current Version | Previous Version | Text Only | Print | Product List | Glossary On
Versions: 1 2 3 4 5 6 7 8 9 10 11 12 13 14 15 16
000
FTUS41 KLWX 211700
TAFCHO
TAF
KCHO 211720Z 2118/2218 24008KT P6SM FEW050
     FM212000 24008KT P6SM BKN050
     FM220000 26004KT P6SM BKN060
     FM220700 29008KT P6SM SCT050
     FM221200 32010KT P6SM SCT050=

USA.gov is the U.S. government's official web portal to all federal, state and local government web resources and services.